createdAt,value
2019-05-11T00:00:35.126Z,99.90
2019-05-11T00:03:03.948Z,99.90
2019-05-11T00:05:32.919Z,99.90
2019-05-11T00:08:01.784Z,99.90
2019-05-11T00:10:30.700Z,99.90
2019-05-11T00:12:59.599Z,99.90
2019-05-11T00:15:28.456Z,99.90
2019-05-11T00:17:57.338Z,99.90
2019-05-11T00:20:26.224Z,99.90
2019-05-11T00:22:55.187Z,99.90
2019-05-11T00:25:43.386Z,99.90
2019-05-11T00:28:12.349Z,99.90
2019-05-11T00:30:41.177Z,99.90
2019-05-11T00:33:10.079Z,99.90
2019-05-11T00:35:38.919Z,99.90
2019-05-11T00:38:07.831Z,99.90
2019-05-11T00:40:36.742Z,99.90
2019-05-11T00:43:05.677Z,99.90
2019-05-11T00:45:34.570Z,99.90
2019-05-11T00:48:03.415Z,99.90
2019-05-11T00:50:39.535Z,99.90
2019-05-11T00:53:02.822Z,99.90
2019-05-11T00:55:31.706Z,99.90
2019-05-11T00:58:00.547Z,99.90
2019-05-11T01:00:29.467Z,99.90
2019-05-11T01:02:58.382Z,99.90
2019-05-11T01:05:27.267Z,99.90
2019-05-11T01:07:56.207Z,99.90
2019-05-11T01:10:40.082Z,99.90
2019-05-11T01:12:55.627Z,99.90
2019-05-11T01:15:24.531Z,99.90
2019-05-11T01:17:53.467Z,99.90
2019-05-11T01:20:22.343Z,99.90
2019-05-11T01:22:51.237Z,99.90
2019-05-11T01:25:20.147Z,99.90
2019-05-11T01:27:49.059Z,99.90
2019-05-11T01:30:18.123Z,99.90
2019-05-11T01:32:47.044Z,99.90
2019-05-11T01:35:26.074Z,99.90
2019-05-11T01:37:52.000Z,99.90
2019-05-11T01:40:21.112Z,99.90
2019-05-11T01:42:50.062Z,99.90
2019-05-11T01:45:18.976Z,99.90
2019-05-11T01:47:47.932Z,99.90
2019-05-11T01:50:16.807Z,99.90
2019-05-11T01:52:45.707Z,99.90
2019-05-11T01:55:14.693Z,99.90
2019-05-11T01:57:43.547Z,99.90
2019-05-11T02:00:12.631Z,99.90
2019-05-11T02:02:41.525Z,99.90
2019-05-11T02:05:12.428Z,99.90
2019-05-11T02:07:41.359Z,99.90
2019-05-11T02:10:11.668Z,99.90
2019-05-11T02:12:40.557Z,99.90
2019-05-11T02:15:09.623Z,99.90
2019-05-11T02:17:38.470Z,99.90
2019-05-11T02:20:07.676Z,99.90
2019-05-11T02:22:36.547Z,99.90
2019-05-11T02:25:08.343Z,99.90
2019-05-11T02:27:37.312Z,99.90
2019-05-11T02:30:06.867Z,99.90
2019-05-11T02:32:35.760Z,99.90
2019-05-11T02:35:06.343Z,99.90
2019-05-11T02:37:35.426Z,99.90
2019-05-11T02:40:06.252Z,99.90
2019-05-11T02:42:35.134Z,99.90
2019-05-11T02:45:05.881Z,99.90
2019-05-11T02:47:34.891Z,99.90
2019-05-11T02:50:04.330Z,99.90
2019-05-11T02:52:34.143Z,99.90
2019-05-11T02:55:06.993Z,99.90
2019-05-11T02:57:35.876Z,99.90
2019-05-11T03:00:07.663Z,99.90
2019-05-11T03:02:36.547Z,99.90
2019-05-11T03:05:08.389Z,99.90
2019-05-11T03:07:40.724Z,99.90
2019-05-11T03:10:09.718Z,99.90
2019-05-11T03:12:38.607Z,99.90
2019-05-11T03:15:08.141Z,99.90
2019-05-11T03:17:37.062Z,99.90
2019-05-11T03:20:07.387Z,99.90
2019-05-11T03:22:36.298Z,99.90
2019-05-11T03:25:06.492Z,99.90
2019-05-11T03:27:35.441Z,99.90
2019-05-11T03:30:07.123Z,99.90
2019-05-11T03:32:36.079Z,99.90
2019-05-11T03:35:05.950Z,99.90
2019-05-11T03:37:34.873Z,99.90
2019-05-11T03:40:05.202Z,99.90
2019-05-11T03:42:34.199Z,99.90
2019-05-11T03:45:03.031Z,99.90
2019-05-11T03:47:31.897Z,99.90
2019-05-11T03:50:00.786Z,99.90
2019-05-11T03:52:29.695Z,99.90
2019-05-11T03:54:58.707Z,99.90
2019-05-11T03:57:27.645Z,99.90
2019-05-11T03:59:56.589Z,99.90
2019-05-11T04:02:25.429Z,99.90
2019-05-11T04:04:54.311Z,99.90
2019-05-11T04:07:23.303Z,99.90
2019-05-11T04:09:52.253Z,99.90
2019-05-11T04:12:34.079Z,99.90
2019-05-11T04:14:51.709Z,99.90
2019-05-11T04:17:22.357Z,99.90
2019-05-11T04:19:51.946Z,99.90
2019-05-11T04:22:20.862Z,99.90
2019-05-11T04:24:49.742Z,99.90
2019-05-11T04:27:19.571Z,99.90
2019-05-11T04:29:49.043Z,99.90
2019-05-11T04:32:17.950Z,99.90
2019-05-11T04:34:46.873Z,99.90
2019-05-11T04:37:15.696Z,99.90
2019-05-11T04:39:44.628Z,99.90
2019-05-11T04:42:13.510Z,99.90
2019-05-11T04:44:42.400Z,99.90
2019-05-11T04:47:11.275Z,99.90
2019-05-11T04:49:40.257Z,99.90
2019-05-11T04:52:09.081Z,99.90
2019-05-11T04:54:37.972Z,99.90
2019-05-11T04:57:06.867Z,99.90
2019-05-11T04:59:35.767Z,99.90
2019-05-11T05:02:04.730Z,99.90
2019-05-11T05:04:33.638Z,99.90
2019-05-11T05:07:05.407Z,99.90
2019-05-11T05:09:35.875Z,99.90
2019-05-11T05:12:08.398Z,99.90
2019-05-11T05:14:34.122Z,99.90
2019-05-11T05:17:03.031Z,99.90
2019-05-11T05:19:31.942Z,99.90
2019-05-11T05:22:00.815Z,99.90
2019-05-11T05:24:29.675Z,99.90
2019-05-11T05:26:58.546Z,99.90
2019-05-11T05:29:27.448Z,99.90
2019-05-11T05:31:56.359Z,99.90
2019-05-11T05:34:25.255Z,99.90
2019-05-11T05:36:54.149Z,99.90
2019-05-11T05:39:42.311Z,99.90
2019-05-11T05:42:11.172Z,99.90
2019-05-11T05:44:40.087Z,99.90
2019-05-11T05:47:09.024Z,99.90
2019-05-11T05:49:37.936Z,99.90
2019-05-11T05:52:06.918Z,99.90
2019-05-11T05:54:35.980Z,99.90
2019-05-11T05:57:04.839Z,99.90
2019-05-11T05:59:33.767Z,99.90
2019-05-11T06:02:02.593Z,99.90
2019-05-11T06:04:31.485Z,99.90
2019-05-11T06:07:00.393Z,99.90
2019-05-11T06:09:29.326Z,99.90
2019-05-11T06:11:58.188Z,99.90
2019-05-11T06:14:27.116Z,99.90
2019-05-11T06:16:56.057Z,99.90
2019-05-11T06:19:24.930Z,99.90
2019-05-11T06:21:53.827Z,99.90
2019-05-11T06:24:22.744Z,99.90
2019-05-11T06:26:51.635Z,99.90
2019-05-11T06:29:21.880Z,99.90
2019-05-11T06:31:51.012Z,99.90
2019-05-11T06:34:19.988Z,99.90
2019-05-11T06:36:48.879Z,99.90
2019-05-11T06:39:17.807Z,99.90
2019-05-11T06:41:46.813Z,99.90
2019-05-11T06:44:15.779Z,99.90
2019-05-11T06:46:44.670Z,99.90
2019-05-11T06:49:13.592Z,99.90
2019-05-11T06:51:42.445Z,99.90
2019-05-11T06:54:11.339Z,99.90
2019-05-11T06:56:40.191Z,99.90
2019-05-11T06:59:09.123Z,99.90
2019-05-11T07:01:37.990Z,99.90
2019-05-11T07:04:06.939Z,99.90
2019-05-11T07:06:35.929Z,99.90
2019-05-11T07:09:06.839Z,99.90
2019-05-11T07:11:35.783Z,98.90
2019-05-11T07:14:19.413Z,94.10
2019-05-11T07:16:35.167Z,91.40
2019-05-11T07:19:04.042Z,91.30
2019-05-11T07:21:32.965Z,84.70
2019-05-11T07:24:01.843Z,84.70
2019-05-11T07:26:30.812Z,77.00
2019-05-11T07:28:59.717Z,69.50
2019-05-11T07:31:28.646Z,77.50
2019-05-11T07:33:58.761Z,68.60
2019-05-11T07:36:28.347Z,71.80
2019-05-11T07:38:58.049Z,68.00
2019-05-11T07:41:28.127Z,66.40
2019-05-11T07:43:58.979Z,75.80
2019-05-11T07:46:29.219Z,68.50
2019-05-11T07:48:58.610Z,64.10
2019-05-11T07:51:28.697Z,64.50
2019-05-11T07:53:58.020Z,64.90
2019-05-11T07:56:28.583Z,61.90
2019-05-11T07:58:58.191Z,59.90
2019-05-11T08:01:28.139Z,62.40
2019-05-11T08:03:58.580Z,56.90
2019-05-11T08:06:28.542Z,59.10
2019-05-11T08:08:58.749Z,57.50
2019-05-11T08:11:31.239Z,56.70
2019-05-11T08:13:58.642Z,55.90
2019-05-11T08:16:28.541Z,57.90
2019-05-11T08:18:58.888Z,61.20
2019-05-11T08:21:28.558Z,58.10
2019-05-11T08:23:58.774Z,57.30
2019-05-11T08:26:28.417Z,59.70
2019-05-11T08:28:58.033Z,57.10
2019-05-11T08:31:27.964Z,57.10
2019-05-11T08:33:58.258Z,57.00
2019-05-11T08:36:28.855Z,55.40
2019-05-11T08:38:58.735Z,57.90
2019-05-11T08:41:28.190Z,55.70
2019-05-11T08:43:58.703Z,55.90
2019-05-11T08:46:28.053Z,56.40
2019-05-11T08:48:59.373Z,54.90
2019-05-11T08:51:28.132Z,54.00
2019-05-11T08:53:58.379Z,55.90
2019-05-11T08:56:28.957Z,55.70
2019-05-11T08:58:58.804Z,54.50
2019-05-11T09:01:28.740Z,54.20
2019-05-11T09:03:58.373Z,51.50
2019-05-11T09:06:28.390Z,53.30
2019-05-11T09:08:58.330Z,53.50
2019-05-11T09:11:28.345Z,50.30
2019-05-11T09:13:57.917Z,51.80
2019-05-11T09:16:29.098Z,48.00
2019-05-11T09:18:58.176Z,48.40
2019-05-11T09:21:28.128Z,48.30
2019-05-11T09:23:57.993Z,48.30
2019-05-11T09:26:28.629Z,50.00
2019-05-11T09:28:58.188Z,53.90
2019-05-11T09:31:27.949Z,52.40
2019-05-11T09:33:58.419Z,52.30
2019-05-11T09:36:28.550Z,49.10
2019-05-11T09:38:58.189Z,50.80
2019-05-11T09:41:28.911Z,47.10
2019-05-11T09:43:58.680Z,48.00
2019-05-11T09:46:28.050Z,48.40
2019-05-11T09:48:59.085Z,48.00
2019-05-11T09:51:28.756Z,47.80
2019-05-11T09:53:58.765Z,47.50
2019-05-11T09:56:28.777Z,48.60
2019-05-11T09:58:58.279Z,49.60
2019-05-11T10:01:29.493Z,47.50
2019-05-11T10:03:58.564Z,45.30
2019-05-11T10:06:28.224Z,49.00
2019-05-11T10:08:57.992Z,47.30
2019-05-11T10:11:28.271Z,46.40
2019-05-11T10:13:57.885Z,45.90
2019-05-11T10:16:28.069Z,46.80
2019-05-11T10:18:59.156Z,46.10
2019-05-11T10:21:28.019Z,45.80
2019-05-11T10:23:57.953Z,45.30
2019-05-11T10:26:27.834Z,44.40
2019-05-11T10:28:58.549Z,45.50
2019-05-11T10:31:29.146Z,45.10
2019-05-11T10:33:58.138Z,44.30
2019-05-11T10:36:28.073Z,46.40
2019-05-11T10:38:58.862Z,47.00
2019-05-11T10:41:28.431Z,46.60
2019-05-11T10:43:58.169Z,48.40
2019-05-11T10:46:28.672Z,50.50
2019-05-11T10:48:58.724Z,50.80
2019-05-11T10:51:28.826Z,52.40
2019-05-11T10:53:57.987Z,54.00
2019-05-11T10:56:28.402Z,55.70
2019-05-11T10:58:58.607Z,56.60
2019-05-11T11:01:28.552Z,59.10
2019-05-11T11:03:58.725Z,62.10
2019-05-11T11:06:28.301Z,63.30
2019-05-11T11:08:58.037Z,66.80
2019-05-11T11:11:27.763Z,70.70
2019-05-11T11:13:58.460Z,74.60
2019-05-11T11:16:36.867Z,75.50
2019-05-11T11:18:58.820Z,75.00
2019-05-11T11:21:28.085Z,77.00
2019-05-11T11:23:58.715Z,75.60
2019-05-11T11:26:28.555Z,79.40
2019-05-11T11:28:58.086Z,79.90
2019-05-11T11:31:28.761Z,78.40
2019-05-11T11:33:58.502Z,77.80
2019-05-11T11:36:28.382Z,77.00
2019-05-11T11:39:03.585Z,78.20
2019-05-11T11:41:32.477Z,65.40
2019-05-11T11:44:01.399Z,61.60
2019-05-11T11:46:30.367Z,59.90
2019-05-11T11:48:59.287Z,67.70
2019-05-11T11:51:28.714Z,59.80
2019-05-11T11:53:58.411Z,69.20
2019-05-11T11:56:28.374Z,68.20
2019-05-11T11:58:58.001Z,70.30
2019-05-11T12:01:28.088Z,67.20
2019-05-11T12:03:58.129Z,63.10
2019-05-11T12:06:28.018Z,58.60
2019-05-11T12:08:58.488Z,63.90
2019-05-11T12:11:28.010Z,67.20
2019-05-11T12:13:57.961Z,68.10
2019-05-11T12:16:28.143Z,59.60
2019-05-11T12:18:57.885Z,62.40
2019-05-11T12:21:27.694Z,56.00
2019-05-11T12:23:58.546Z,57.30
2019-05-11T12:26:28.189Z,59.30
2019-05-11T12:28:57.709Z,55.60
2019-05-11T12:31:30.655Z,54.20
2019-05-11T12:33:58.624Z,56.50
2019-05-11T12:36:28.103Z,58.30
2019-05-11T12:38:58.009Z,56.30
2019-05-11T12:41:28.032Z,56.90
2019-05-11T12:43:57.808Z,57.10
2019-05-11T12:46:27.690Z,55.80
2019-05-11T12:48:58.850Z,55.00
2019-05-11T12:51:27.661Z,54.80
2019-05-11T12:53:57.644Z,54.10
2019-05-11T12:56:27.763Z,54.50
2019-05-11T12:58:58.260Z,54.70
2019-05-11T13:01:29.063Z,55.20
2019-05-11T13:03:58.198Z,55.80
2019-05-11T13:06:27.906Z,54.40
2019-05-11T13:08:58.732Z,54.20
2019-05-11T13:11:28.615Z,53.70
2019-05-11T13:13:58.517Z,55.20
2019-05-11T13:16:28.763Z,55.50
2019-05-11T13:18:57.819Z,56.80
2019-05-11T13:21:28.590Z,57.60
2019-05-11T13:23:57.698Z,59.40
2019-05-11T13:26:28.435Z,58.20
2019-05-11T13:28:58.432Z,59.60
2019-05-11T13:31:27.839Z,59.00
2019-05-11T13:33:58.511Z,59.60
2019-05-11T13:36:28.625Z,60.60
2019-05-11T13:38:58.760Z,61.30
2019-05-11T13:41:28.199Z,62.00
2019-05-11T13:43:57.708Z,66.30
2019-05-11T13:46:28.272Z,71.20
2019-05-11T13:48:57.910Z,72.70
2019-05-11T13:51:28.558Z,71.90
2019-05-11T13:53:58.438Z,67.30
2019-05-11T13:56:28.495Z,64.40
2019-05-11T13:58:59.404Z,56.90
2019-05-11T14:01:28.260Z,54.00
2019-05-11T14:03:58.510Z,50.90
2019-05-11T14:06:28.866Z,46.00
2019-05-11T14:08:58.817Z,44.40
2019-05-11T14:11:28.617Z,46.10
2019-05-11T14:13:58.479Z,47.00
2019-05-11T14:16:27.851Z,50.00
2019-05-11T14:18:57.828Z,52.30
2019-05-11T14:21:27.944Z,54.10
2019-05-11T14:23:58.758Z,55.80
2019-05-11T14:26:28.170Z,53.40
2019-05-11T14:28:58.378Z,53.10
2019-05-11T14:31:27.937Z,53.00
2019-05-11T14:33:57.923Z,51.70
2019-05-11T14:36:28.157Z,52.20
2019-05-11T14:38:57.805Z,49.50
2019-05-11T14:41:28.586Z,50.70
2019-05-11T14:43:58.000Z,45.40
2019-05-11T14:46:27.858Z,41.70
2019-05-11T14:48:58.457Z,39.20
2019-05-11T14:51:28.226Z,37.90
2019-05-11T14:53:59.415Z,37.30
2019-05-11T14:56:28.014Z,36.30
2019-05-11T14:58:58.025Z,36.60
2019-05-11T15:01:28.640Z,35.00
2019-05-11T15:03:58.882Z,34.20
2019-05-11T15:06:28.010Z,34.70
2019-05-11T15:08:58.250Z,36.20
2019-05-11T15:11:28.024Z,38.40
2019-05-11T15:13:57.549Z,40.30
2019-05-11T15:16:27.883Z,42.20
2019-05-11T15:18:58.576Z,41.60
2019-05-11T15:21:28.060Z,39.50
2019-05-11T15:23:58.047Z,37.80
2019-05-11T15:26:27.769Z,37.40
2019-05-11T15:28:59.702Z,38.00
2019-05-11T15:31:28.560Z,39.80
2019-05-11T15:33:57.807Z,40.20
2019-05-11T15:36:28.602Z,41.90
2019-05-11T15:38:58.271Z,43.20
2019-05-11T15:41:28.095Z,44.70
2019-05-11T15:43:57.924Z,46.90
2019-05-11T15:46:28.281Z,48.00
2019-05-11T15:49:03.132Z,50.10
2019-05-11T15:51:29.095Z,49.90
2019-05-11T15:53:58.688Z,50.60
2019-05-11T15:56:27.987Z,53.20
2019-05-11T15:58:57.829Z,53.60
2019-05-11T16:01:28.940Z,56.30
2019-05-11T16:03:58.314Z,58.00
2019-05-11T16:06:28.425Z,59.00
2019-05-11T16:08:58.577Z,60.40
2019-05-11T16:11:28.341Z,60.20
2019-05-11T16:13:58.610Z,64.10
2019-05-11T16:16:28.133Z,66.80
2019-05-11T16:19:10.999Z,67.90
2019-05-11T16:21:28.594Z,70.40
2019-05-11T16:23:58.480Z,71.50
2019-05-11T16:26:28.098Z,73.40
2019-05-11T16:28:58.122Z,74.10
2019-05-11T16:31:28.456Z,76.60
2019-05-11T16:33:58.884Z,78.70
2019-05-11T16:36:28.480Z,80.20
2019-05-11T16:38:57.484Z,82.00
2019-05-11T16:41:28.899Z,83.30
2019-05-11T16:43:58.557Z,85.40
2019-05-11T16:46:28.410Z,86.50
2019-05-11T16:48:57.846Z,85.70
2019-05-11T16:51:28.442Z,86.70
2019-05-11T16:53:58.747Z,86.70
2019-05-11T16:56:27.847Z,86.70
2019-05-11T16:58:58.779Z,88.20
2019-05-11T17:01:27.881Z,89.00
2019-05-11T17:03:57.857Z,89.90
2019-05-11T17:06:28.606Z,89.80
2019-05-11T17:08:58.012Z,90.10
2019-05-11T17:11:28.818Z,91.00
2019-05-11T17:13:57.628Z,91.40
2019-05-11T17:16:28.463Z,91.80
2019-05-11T17:18:58.467Z,92.00
2019-05-11T17:21:29.341Z,92.70
2019-05-11T17:23:58.044Z,93.60
2019-05-11T17:26:27.872Z,94.10
2019-05-11T17:28:58.169Z,94.50
2019-05-11T17:31:27.237Z,94.60
2019-05-11T17:33:58.050Z,95.20
2019-05-11T17:36:27.947Z,95.50
2019-05-11T17:38:58.251Z,96.00
2019-05-11T17:41:27.933Z,96.50
2019-05-11T17:43:58.366Z,96.70
2019-05-11T17:46:27.950Z,97.50
2019-05-11T17:48:57.007Z,98.20
2019-05-11T17:51:25.879Z,99.20
2019-05-11T17:53:54.739Z,99.50
2019-05-11T17:56:23.620Z,99.90
2019-05-11T17:58:52.492Z,99.90
2019-05-11T18:01:21.341Z,99.90
2019-05-11T18:03:50.230Z,99.30
2019-05-11T18:06:19.103Z,99.20
2019-05-11T18:08:48.035Z,97.30
2019-05-11T18:11:18.554Z,97.90
2019-05-11T18:13:48.264Z,98.50
2019-05-11T18:16:18.725Z,99.80
2019-05-11T18:18:48.357Z,99.90
2019-05-11T18:21:18.840Z,99.90
2019-05-11T18:23:48.906Z,99.90
2019-05-11T18:26:18.146Z,99.90
2019-05-11T18:28:48.272Z,99.90
2019-05-11T18:31:18.205Z,99.90
2019-05-11T18:33:48.751Z,99.90
2019-05-11T18:36:18.428Z,99.90
2019-05-11T18:38:48.756Z,99.90
2019-05-11T18:41:17.848Z,99.90
2019-05-11T18:43:48.347Z,99.90
2019-05-11T18:46:17.254Z,99.90
2019-05-11T18:48:48.509Z,99.90
2019-05-11T18:51:16.830Z,99.90
2019-05-11T18:53:48.131Z,99.90
2019-05-11T18:56:18.216Z,99.90
2019-05-11T18:58:47.804Z,99.90
2019-05-11T19:01:17.840Z,99.90
2019-05-11T19:03:47.937Z,99.90
2019-05-11T19:06:18.392Z,99.90
2019-05-11T19:08:47.941Z,99.90
2019-05-11T19:11:18.254Z,99.90
2019-05-11T19:13:47.809Z,99.90
2019-05-11T19:16:18.689Z,99.90
2019-05-11T19:18:48.462Z,99.90
2019-05-11T19:21:18.015Z,99.90
2019-05-11T19:23:48.684Z,99.90
2019-05-11T19:26:18.004Z,99.90
2019-05-11T19:28:47.109Z,99.90
2019-05-11T19:31:18.911Z,99.90
2019-05-11T19:33:48.736Z,99.90
2019-05-11T19:36:17.168Z,99.90
2019-05-11T19:38:47.851Z,99.90
2019-05-11T19:41:18.597Z,99.90
2019-05-11T19:43:48.596Z,99.90
2019-05-11T19:46:18.446Z,99.90
2019-05-11T19:48:47.564Z,99.90
2019-05-11T19:51:18.286Z,99.90
2019-05-11T19:53:48.386Z,99.90
2019-05-11T19:56:18.297Z,99.90
2019-05-11T19:58:48.468Z,99.90
2019-05-11T20:01:18.797Z,99.90
2019-05-11T20:03:47.939Z,99.90
2019-05-11T20:06:16.843Z,99.90
2019-05-11T20:08:45.837Z,99.90
2019-05-11T20:11:14.748Z,99.90
2019-05-11T20:13:43.663Z,99.90
2019-05-11T20:16:12.538Z,99.90
2019-05-11T20:18:41.528Z,99.90
2019-05-11T20:21:19.177Z,99.90
2019-05-11T20:23:41.051Z,99.90
2019-05-11T20:26:09.952Z,99.90
2019-05-11T20:28:38.843Z,99.90
2019-05-11T20:31:08.117Z,99.90
2019-05-11T20:33:38.469Z,99.90
2019-05-11T20:36:08.677Z,99.90
2019-05-11T20:38:38.386Z,99.90
2019-05-11T20:41:08.383Z,99.90
2019-05-11T20:43:37.529Z,99.90
2019-05-11T20:46:08.205Z,99.90
2019-05-11T20:48:38.205Z,99.90
2019-05-11T20:51:08.154Z,99.90
2019-05-11T20:53:38.744Z,99.90
2019-05-11T20:56:08.585Z,99.90
2019-05-11T20:58:59.225Z,99.90
2019-05-11T21:01:28.729Z,99.90
2019-05-11T21:03:58.643Z,99.90
2019-05-11T21:06:29.534Z,99.90
2019-05-11T21:08:58.200Z,99.90
2019-05-11T21:11:27.047Z,99.90
2019-05-11T21:13:55.920Z,99.90
2019-05-11T21:16:24.865Z,99.90
2019-05-11T21:18:53.755Z,99.90
2019-05-11T21:21:22.642Z,99.90
2019-05-11T21:23:51.523Z,99.90
2019-05-11T21:26:20.443Z,99.90
2019-05-11T21:28:49.391Z,99.90
2019-05-11T21:31:18.704Z,99.90
2019-05-11T21:33:47.742Z,99.90
2019-05-11T21:36:18.556Z,99.90
2019-05-11T21:38:48.279Z,99.90
2019-05-11T21:41:17.290Z,99.90
2019-05-11T21:43:48.294Z,99.90
2019-05-11T21:46:18.085Z,99.90
2019-05-11T21:48:47.806Z,99.90
2019-05-11T21:51:18.190Z,99.90
2019-05-11T21:53:48.703Z,99.90
2019-05-11T21:56:18.774Z,99.90
2019-05-11T21:58:47.774Z,99.90
2019-05-11T22:01:20.075Z,99.90
2019-05-11T22:03:48.011Z,99.90
2019-05-11T22:06:17.140Z,99.90
2019-05-11T22:08:48.232Z,99.90
2019-05-11T22:11:17.988Z,99.90
2019-05-11T22:13:48.514Z,99.90
2019-05-11T22:16:17.561Z,99.90
2019-05-11T22:18:48.382Z,99.90
2019-05-11T22:21:18.767Z,99.90
2019-05-11T22:23:50.514Z,99.90
2019-05-11T22:26:18.138Z,99.90
2019-05-11T22:28:48.111Z,99.90
2019-05-11T22:31:18.250Z,99.90
2019-05-11T22:33:48.020Z,99.90
2019-05-11T22:36:17.255Z,99.90
2019-05-11T22:38:48.223Z,99.90
2019-05-11T22:41:18.017Z,99.90
2019-05-11T22:43:48.550Z,99.90
2019-05-11T22:46:17.813Z,99.90
2019-05-11T22:48:48.912Z,99.90
2019-05-11T22:51:18.338Z,99.90
2019-05-11T22:53:50.183Z,99.90
2019-05-11T22:56:19.919Z,99.90
2019-05-11T22:58:49.994Z,99.90
2019-05-11T23:01:19.079Z,99.90
2019-05-11T23:03:48.185Z,99.90
2019-05-11T23:06:18.070Z,99.90
2019-05-11T23:08:54.061Z,99.90
2019-05-11T23:11:21.208Z,99.90
2019-05-11T23:13:50.053Z,99.90
2019-05-11T23:16:19.035Z,99.90
2019-05-11T23:18:48.183Z,99.90
2019-05-11T23:21:17.208Z,99.90
2019-05-11T23:23:47.859Z,99.90
2019-05-11T23:26:17.833Z,99.90
2019-05-11T23:28:48.731Z,99.90
2019-05-11T23:31:20.969Z,99.90
2019-05-11T23:33:49.867Z,99.90
2019-05-11T23:36:18.768Z,99.90
2019-05-11T23:38:47.821Z,99.90
2019-05-11T23:41:24.788Z,99.90
2019-05-11T23:43:47.740Z,99.90
2019-05-11T23:46:17.601Z,99.90
2019-05-11T23:48:48.537Z,99.90
2019-05-11T23:51:18.141Z,99.90
2019-05-11T23:53:47.961Z,99.90
2019-05-11T23:56:17.014Z,99.90
2019-05-11T23:58:47.790Z,99.90
